Time;durP1;ratioP1;P1;durP2;ratioP2;P2;SDS_P1;SDS_P2;PMS_P1;PMS_P2;Temp;Humidity;BMP_temperature;BMP_pressure;BME280_temperature;BME280_humidity;BME280_pressure;Samples;Min_cycle;Max_cycle;Signal;HPM_P1;HPM_P2
2020/12/28 00:02:00;;;;;;;1.88;1.00;;;;;;;;;;5072694;28;20198;-75
2020/12/28 00:04:27;;;;;;;1.10;1.00;;;;;;;;;;5067449;28;20226;-74
2020/12/28 00:06:53;;;;;;;0.98;0.90;;;;;;;;;;5070245;28;20190;-75
2020/12/28 00:09:20;;;;;;;1.00;0.90;;;;;;;;;;5072473;28;20212;-76
2020/12/28 00:11:47;;;;;;;1.30;0.93;;;;;;;;;;5072098;28;20223;-75
2020/12/28 00:14:14;;;;;;;1.10;1.00;;;;;;;;;;5072230;28;20303;-75
2020/12/28 00:16:41;;;;;;;1.02;0.80;;;;;;;;;;5073643;28;20241;-74
2020/12/28 00:19:08;;;;;;;1.38;0.90;;;;;;;;;;5074380;28;20285;-74
2020/12/28 00:21:35;;;;;;;1.10;1.00;;;;;;;;;;5074216;28;20208;-77
2020/12/28 00:24:02;;;;;;;1.00;0.90;;;;;;;;;;5074194;28;20233;-75
2020/12/28 00:26:29;;;;;;;1.10;0.90;;;;;;;;;;5068423;28;20195;-75
2020/12/28 00:28:55;;;;;;;1.10;0.90;;;;;;;;;;5069810;28;20191;-76
2020/12/28 00:31:23;;;;;;;0.90;0.82;;;;;;;;;;5072166;28;20198;-76
2020/12/28 00:33:50;;;;;;;0.90;0.70;;;;;;;;;;5071511;28;20265;-75
2020/12/28 00:36:16;;;;;;;0.80;0.80;;;;;;;;;;5071935;28;20194;-76
2020/12/28 00:38:43;;;;;;;1.52;0.80;;;;;;;;;;5073368;28;20305;-75
2020/12/28 00:41:11;;;;;;;1.20;1.02;;;;;;;;;;5073862;28;20189;-76
2020/12/28 00:43:40;;;;;;;0.80;0.80;;;;;;;;;;5073952;28;20601;-76
2020/12/28 00:46:07;;;;;;;0.90;0.77;;;;;;;;;;5073928;28;20220;-75
2020/12/28 00:48:36;;;;;;;1.00;0.90;;;;;;;;;;5067977;28;20255;-75
2020/12/28 00:51:02;;;;;;;1.60;0.90;;;;;;;;;;5069342;28;20215;-75
2020/12/28 00:53:29;;;;;;;1.10;0.90;;;;;;;;;;5069967;28;20772;-76
2020/12/28 00:55:56;;;;;;;1.70;0.80;;;;;;;;;;5071514;28;20205;-76
2020/12/28 00:58:23;;;;;;;0.90;0.80;;;;;;;;;;5071424;28;20733;-76
2020/12/28 01:00:50;;;;;;;0.90;0.80;;;;;;;;;;5073134;28;20259;-75
2020/12/28 01:03:17;;;;;;;0.90;0.70;;;;;;;;;;5073563;28;20222;-75
2020/12/28 01:05:45;;;;;;;0.80;0.70;;;;;;;;;;5073760;28;20197;-75
2020/12/28 01:08:12;;;;;;;0.90;0.80;;;;;;;;;;5071830;28;20563;-76
2020/12/28 01:10:42;;;;;;;0.80;0.80;;;;;;;;;;5068100;28;20228;-75
2020/12/28 01:13:09;;;;;;;0.90;0.80;;;;;;;;;;5066978;28;20425;-75
2020/12/28 01:15:36;;;;;;;1.00;0.80;;;;;;;;;;5062215;28;20722;-76
2020/12/28 01:18:03;;;;;;;1.02;0.93;;;;;;;;;;5070166;28;20197;-76
2020/12/28 01:20:30;;;;;;;0.95;0.80;;;;;;;;;;5070659;28;20244;-75
2020/12/28 01:22:57;;;;;;;0.90;0.80;;;;;;;;;;5068796;28;20733;-75
2020/12/28 01:25:24;;;;;;;0.90;0.60;;;;;;;;;;5067940;28;20678;-75
2020/12/28 01:27:51;;;;;;;0.90;0.80;;;;;;;;;;5070412;28;20204;-75
2020/12/28 01:30:18;;;;;;;0.80;0.80;;;;;;;;;;5070491;28;20186;-74
2020/12/28 01:32:44;;;;;;;0.80;0.70;;;;;;;;;;5070329;28;20294;-76
2020/12/28 01:35:11;;;;;;;1.00;0.90;;;;;;;;;;5069569;28;20194;-75
2020/12/28 01:37:38;;;;;;;1.35;0.70;;;;;;;;;;5071756;28;20194;-75
2020/12/28 01:40:05;;;;;;;1.00;0.88;;;;;;;;;;5072721;28;20292;-76
2020/12/28 01:42:32;;;;;;;1.58;0.90;;;;;;;;;;5071147;28;20259;-75
2020/12/28 01:44:59;;;;;;;0.90;0.70;;;;;;;;;;5069211;28;20286;-75
2020/12/28 01:47:27;;;;;;;0.80;0.75;;;;;;;;;;5067225;28;20686;-76
2020/12/28 01:49:54;;;;;;;1.13;1.00;;;;;;;;;;5069831;28;20218;-76
2020/12/28 01:52:21;;;;;;;1.20;1.10;;;;;;;;;;5070273;28;20230;-75
2020/12/28 01:54:48;;;;;;;1.30;0.88;;;;;;;;;;5070003;28;20226;-75
2020/12/28 01:57:16;;;;;;;1.00;0.90;;;;;;;;;;5070984;28;20221;-76
2020/12/28 01:59:43;;;;;;;1.23;0.80;;;;;;;;;;5072468;28;20195;-75
2020/12/28 02:02:10;;;;;;;1.45;0.80;;;;;;;;;;5072420;28;20224;-75
2020/12/28 02:04:37;;;;;;;1.20;0.80;;;;;;;;;;5071821;28;20346;-76
2020/12/28 02:07:05;;;;;;;1.70;0.80;;;;;;;;;;5069001;28;20192;-75
2020/12/28 02:09:32;;;;;;;1.25;0.70;;;;;;;;;;5066857;28;20281;-75
2020/12/28 02:11:59;;;;;;;1.65;0.90;;;;;;;;;;5069514;28;20201;-75
2020/12/28 02:14:26;;;;;;;1.20;1.00;;;;;;;;;;5069931;28;20253;-75
2020/12/28 02:16:54;;;;;;;1.55;0.90;;;;;;;;;;5069855;28;20200;-75
2020/12/28 02:19:21;;;;;;;1.00;0.90;;;;;;;;;;5070316;28;20670;-75
2020/12/28 02:21:49;;;;;;;1.00;0.90;;;;;;;;;;5071804;28;20202;-75
2020/12/28 02:24:16;;;;;;;1.73;0.90;;;;;;;;;;5071534;28;20683;-76
2020/12/28 02:26:43;;;;;;;2.08;1.00;;;;;;;;;;5071694;28;20194;-75
2020/12/28 02:29:10;;;;;;;1.20;0.90;;;;;;;;;;5068577;28;20186;-75
2020/12/28 02:31:37;;;;;;;1.02;0.80;;;;;;;;;;5066481;28;20273;-75
2020/12/28 02:34:04;;;;;;;1.23;0.80;;;;;;;;;;5069382;28;20640;-76
2020/12/28 02:36:31;;;;;;;0.90;0.80;;;;;;;;;;5069480;28;20198;-76
2020/12/28 02:38:59;;;;;;;1.00;0.80;;;;;;;;;;5069317;28;20199;-75
2020/12/28 02:41:25;;;;;;;0.80;0.80;;;;;;;;;;5069853;28;20206;-75
2020/12/28 02:43:52;;;;;;;0.90;0.80;;;;;;;;;;5071521;28;20225;-76
2020/12/28 02:46:19;;;;;;;1.00;0.80;;;;;;;;;;5070203;28;20237;-75
2020/12/28 02:48:46;;;;;;;1.00;0.80;;;;;;;;;;5071717;28;20194;-76
2020/12/28 02:51:13;;;;;;;1.00;0.75;;;;;;;;;;5068385;28;20202;-75
2020/12/28 02:53:40;;;;;;;1.00;0.73;;;;;;;;;;5065992;28;20636;-75
2020/12/28 02:56:07;;;;;;;1.50;0.80;;;;;;;;;;5068752;28;20190;-76
2020/12/28 02:58:34;;;;;;;0.95;0.75;;;;;;;;;;5069231;28;20209;-75
2020/12/28 03:01:01;;;;;;;0.80;0.70;;;;;;;;;;5069335;28;20239;-76
2020/12/28 03:03:28;;;;;;;1.20;0.80;;;;;;;;;;5069629;28;20224;-75
2020/12/28 03:05:55;;;;;;;0.80;0.70;;;;;;;;;;5071295;28;20247;-75
2020/12/28 03:08:21;;;;;;;0.70;0.60;;;;;;;;;;5071421;28;20760;-75
2020/12/28 03:10:48;;;;;;;0.93;0.70;;;;;;;;;;5071075;28;20297;-76
2020/12/28 03:13:16;;;;;;;1.15;0.70;;;;;;;;;;5067585;28;20233;-75
2020/12/28 03:15:42;;;;;;;1.00;0.80;;;;;;;;;;5066246;28;20606;-75
2020/12/28 03:18:09;;;;;;;0.88;0.70;;;;;;;;;;5068319;28;20190;-75
2020/12/28 03:20:36;;;;;;;1.02;0.88;;;;;;;;;;5069282;28;20190;-76
2020/12/28 03:23:03;;;;;;;1.27;1.10;;;;;;;;;;5068786;28;20834;-76
2020/12/28 03:25:30;;;;;;;1.20;0.77;;;;;;;;;;5069614;28;20222;-75
2020/12/28 03:27:57;;;;;;;0.85;0.73;;;;;;;;;;5071192;28;20555;-76
2020/12/28 03:30:24;;;;;;;0.90;0.70;;;;;;;;;;5071371;28;20553;-75
2020/12/28 03:32:51;;;;;;;0.70;0.60;;;;;;;;;;5071184;28;20677;-76
2020/12/28 03:35:18;;;;;;;0.98;0.88;;;;;;;;;;5067680;28;20664;-75
2020/12/28 03:37:45;;;;;;;0.80;0.80;;;;;;;;;;5068811;28;20229;-75
2020/12/28 03:40:11;;;;;;;0.88;0.80;;;;;;;;;;5072392;28;20197;-76
2020/12/28 03:42:38;;;;;;;0.98;0.88;;;;;;;;;;5072955;28;20198;-75
2020/12/28 03:45:05;;;;;;;2.20;1.00;;;;;;;;;;5072968;28;20840;-76
2020/12/28 03:47:33;;;;;;;1.10;1.00;;;;;;;;;;5073681;28;20819;-76
2020/12/28 03:49:59;;;;;;;0.90;0.80;;;;;;;;;;5074926;28;20204;-75
2020/12/28 03:52:26;;;;;;;1.10;0.90;;;;;;;;;;5074966;28;20263;-76
2020/12/28 03:54:53;;;;;;;1.20;0.80;;;;;;;;;;5074506;28;20226;-76
2020/12/28 03:57:20;;;;;;;1.00;0.90;;;;;;;;;;5071179;28;20247;-75
2020/12/28 03:59:46;;;;;;;1.00;0.90;;;;;;;;;;5069778;28;20285;-76
2020/12/28 04:02:13;;;;;;;1.00;0.80;;;;;;;;;;5071920;28;20200;-75
2020/12/28 04:04:41;;;;;;;1.98;1.02;;;;;;;;;;5072169;28;20756;-75
2020/12/28 04:07:08;;;;;;;0.80;0.80;;;;;;;;;;5072361;28;20263;-75
2020/12/28 04:09:35;;;;;;;0.70;0.70;;;;;;;;;;5072648;28;20572;-75
2020/12/28 04:12:02;;;;;;;1.10;0.98;;;;;;;;;;5074734;28;20282;-75
2020/12/28 04:14:28;;;;;;;2.25;1.00;;;;;;;;;;5074472;28;20224;-75
2020/12/28 04:16:55;;;;;;;1.00;0.90;;;;;;;;;;5074571;28;20251;-75
2020/12/28 04:19:22;;;;;;;0.90;0.70;;;;;;;;;;5071099;28;20230;-75
2020/12/28 04:21:50;;;;;;;0.80;0.80;;;;;;;;;;5069051;28;20202;-76
2020/12/28 04:24:16;;;;;;;0.80;0.73;;;;;;;;;;5071421;28;20332;-76
2020/12/28 04:26:43;;;;;;;0.85;0.75;;;;;;;;;;5072112;28;20195;-75
2020/12/28 04:29:10;;;;;;;1.08;0.75;;;;;;;;;;5072138;28;20194;-75
2020/12/28 04:31:37;;;;;;;0.80;0.80;;;;;;;;;;5072523;28;20210;-76
2020/12/28 04:34:04;;;;;;;1.20;0.88;;;;;;;;;;5074119;28;20287;-75
2020/12/28 04:36:31;;;;;;;1.10;0.90;;;;;;;;;;5073859;28;20221;-74
2020/12/28 04:38:58;;;;;;;1.45;0.70;;;;;;;;;;5074108;28;20200;-75
2020/12/28 04:41:28;;;;;;;2.10;0.90;;;;;;;;;;5070965;28;20201;-75
2020/12/28 04:43:55;;;;;;;1.10;0.90;;;;;;;;;;5067488;28;20226;-75
2020/12/28 04:46:22;;;;;;;1.23;1.13;;;;;;;;;;5069972;28;20194;-76
2020/12/28 04:48:49;;;;;;;1.30;0.90;;;;;;;;;;5071201;28;20220;-75
2020/12/28 04:51:16;;;;;;;1.33;1.10;;;;;;;;;;5071545;28;20674;-75
2020/12/28 04:53:43;;;;;;;1.00;0.90;;;;;;;;;;5071785;28;20693;-76
2020/12/28 04:56:11;;;;;;;1.02;0.93;;;;;;;;;;5073512;28;20674;-76
2020/12/28 04:58:38;;;;;;;1.00;0.90;;;;;;;;;;5073960;28;20204;-75
2020/12/28 05:01:04;;;;;;;1.00;0.85;;;;;;;;;;5073550;28;20643;-75
2020/12/28 05:03:31;;;;;;;1.10;0.90;;;;;;;;;;5069893;28;20221;-76
2020/12/28 05:05:58;;;;;;;0.85;0.80;;;;;;;;;;5068216;28;20651;-75
2020/12/28 05:08:25;;;;;;;0.90;0.80;;;;;;;;;;5070852;28;20190;-76
2020/12/28 05:10:52;;;;;;;1.00;0.80;;;;;;;;;;5071299;28;20215;-76
2020/12/28 05:13:20;;;;;;;1.08;0.80;;;;;;;;;;5071371;28;20214;-75
2020/12/28 05:15:48;;;;;;;0.90;0.80;;;;;;;;;;5071982;28;20194;-76
2020/12/28 05:18:15;;;;;;;1.10;0.90;;;;;;;;;;5073426;28;20204;-76
2020/12/28 05:20:43;;;;;;;0.80;0.70;;;;;;;;;;5073389;28;20202;-76
2020/12/28 05:23:10;;;;;;;1.10;0.95;;;;;;;;;;5071857;28;20214;-75
2020/12/28 05:25:37;;;;;;;1.20;0.98;;;;;;;;;;5069490;28;20260;-75
2020/12/28 05:28:05;;;;;;;1.20;1.10;;;;;;;;;;5068054;28;20190;-77
2020/12/28 05:30:33;;;;;;;1.38;1.10;;;;;;;;;;5069112;28;20255;-75
2020/12/28 05:33:02;;;;;;;1.35;1.02;;;;;;;;;;5070603;28;20210;-76
2020/12/28 05:35:29;;;;;;;1.95;1.10;;;;;;;;;;5070760;28;20198;-75
2020/12/28 05:37:56;;;;;;;0.80;0.70;;;;;;;;;;5071492;28;20198;-75
2020/12/28 05:40:23;;;;;;;1.05;0.80;;;;;;;;;;5072924;28;20194;-76
2020/12/28 05:42:51;;;;;;;1.27;0.98;;;;;;;;;;5072613;28;20659;-76
2020/12/28 05:45:17;;;;;;;1.42;0.98;;;;;;;;;;5072576;28;20630;-76
2020/12/28 05:47:50;;;;;;;0.80;0.70;;;;;;;;;;5067525;28;20674;-75
2020/12/28 05:50:19;;;;;;;1.15;0.90;;;;;;;;;;5066619;28;20186;-77
2020/12/28 05:52:49;;;;;;;1.85;0.70;;;;;;;;;;5070034;28;20683;-76
2020/12/28 05:55:18;;;;;;;0.98;0.80;;;;;;;;;;5069038;28;20218;-76
2020/12/28 05:57:45;;;;;;;1.38;0.82;;;;;;;;;;5070469;28;20264;-76
2020/12/28 06:00:12;;;;;;;0.90;0.85;;;;;;;;;;5070891;28;20698;-75
2020/12/28 06:02:40;;;;;;;1.08;0.90;;;;;;;;;;5072449;28;20284;-75
2020/12/28 06:05:10;;;;;;;1.02;0.93;;;;;;;;;;5072480;28;20228;-77
2020/12/28 06:07:37;;;;;;;1.98;1.00;;;;;;;;;;5072643;28;20555;-76
2020/12/28 06:10:04;;;;;;;1.30;1.20;;;;;;;;;;5068113;28;20662;-76
2020/12/28 06:12:31;;;;;;;1.00;0.90;;;;;;;;;;5067481;28;20858;-77
2020/12/28 06:14:59;;;;;;;0.82;0.80;;;;;;;;;;5068877;28;20559;-76
2020/12/28 06:17:33;;;;;;;1.65;0.90;;;;;;;;;;5069889;28;20198;-75
2020/12/28 06:20:01;;;;;;;1.15;0.93;;;;;;;;;;5070091;28;20221;-77
2020/12/28 06:22:28;;;;;;;0.90;0.85;;;;;;;;;;5071119;28;20668;-76
2020/12/28 06:24:57;;;;;;;2.20;1.10;;;;;;;;;;5071844;28;20241;-76
2020/12/28 06:27:28;;;;;;;2.55;0.90;;;;;;;;;;5070818;28;20655;-75
2020/12/28 06:29:54;;;;;;;1.23;0.90;;;;;;;;;;5072123;28;20230;-76
2020/12/28 06:32:21;;;;;;;1.17;0.80;;;;;;;;;;5067081;28;20190;-76
2020/12/28 06:35:00;;;;;;;1.40;0.75;;;;;;;;;;5067059;28;20610;-76
2020/12/28 06:37:27;;;;;;;1.58;0.77;;;;;;;;;;5069924;28;20190;-76
2020/12/28 06:39:58;;;;;;;1.13;0.85;;;;;;;;;;5069567;28;20197;-76
2020/12/28 06:42:25;;;;;;;0.80;0.80;;;;;;;;;;5066965;28;20206;-76
2020/12/28 06:44:51;;;;;;;3.90;0.88;;;;;;;;;;5065312;28;20222;-76
2020/12/28 06:47:19;;;;;;;1.17;1.05;;;;;;;;;;5065813;28;20202;-76
2020/12/28 06:49:46;;;;;;;0.80;0.80;;;;;;;;;;5063916;28;20552;-76
2020/12/28 06:52:13;;;;;;;0.90;0.80;;;;;;;;;;5050220;28;20194;-76
2020/12/28 06:54:40;;;;;;;1.90;0.90;;;;;;;;;;5049037;28;20280;-76
2020/12/28 06:57:08;;;;;;;1.17;1.00;;;;;;;;;;5043675;28;20243;-76
2020/12/28 06:59:35;;;;;;;2.25;1.10;;;;;;;;;;5048981;28;20191;-76
2020/12/28 07:02:03;;;;;;;1.25;1.13;;;;;;;;;;5065987;28;20267;-76
2020/12/28 07:04:33;;;;;;;1.33;1.23;;;;;;;;;;5070955;28;20233;-77
2020/12/28 07:07:00;;;;;;;2.92;1.25;;;;;;;;;;5068751;28;20198;-75
2020/12/28 07:09:27;;;;;;;1.20;1.10;;;;;;;;;;5065472;28;20216;-75
2020/12/28 07:11:54;;;;;;;1.50;1.40;;;;;;;;;;5067345;28;20190;-75
2020/12/28 07:14:22;;;;;;;2.17;1.10;;;;;;;;;;5068951;28;20304;-76
2020/12/28 07:16:56;;;;;;;5.15;1.15;;;;;;;;;;5067994;28;20212;-76
2020/12/28 07:19:23;;;;;;;1.60;1.50;;;;;;;;;;5063938;28;20205;-75
2020/12/28 07:21:50;;;;;;;1.77;1.17;;;;;;;;;;5066590;28;20190;-77
2020/12/28 07:24:17;;;;;;;1.63;1.10;;;;;;;;;;5070771;28;20503;-76
2020/12/28 07:26:44;;;;;;;1.10;1.00;;;;;;;;;;5071378;28;20197;-78
2020/12/28 07:29:11;;;;;;;1.60;0.95;;;;;;;;;;5069766;28;20196;-81
2020/12/28 07:31:39;;;;;;;1.05;0.90;;;;;;;;;;5064297;28;20214;-84
2020/12/28 07:34:06;;;;;;;1.90;1.00;;;;;;;;;;5067776;28;20211;-75
2020/12/28 07:36:34;;;;;;;3.22;1.42;;;;;;;;;;5068047;28;20201;-76
2020/12/28 07:39:01;;;;;;;2.92;1.58;;;;;;;;;;5069285;28;20240;-75
2020/12/28 07:41:28;;;;;;;1.85;1.00;;;;;;;;;;5067514;28;20652;-76
2020/12/28 07:43:56;;;;;;;1.58;1.40;;;;;;;;;;5069075;28;20217;-76
2020/12/28 07:46:30;;;;;;;1.40;1.30;;;;;;;;;;5070726;28;20201;-76
2020/12/28 07:49:02;;;;;;;1.83;1.30;;;;;;;;;;5070957;28;20208;-76
2020/12/28 07:51:29;;;;;;;1.95;1.50;;;;;;;;;;5069917;28;20285;-74
2020/12/28 07:54:02;;;;;;;1.48;1.10;;;;;;;;;;5064915;28;20236;-77
2020/12/28 07:56:30;;;;;;;3.80;1.70;;;;;;;;;;5067614;28;20546;-75
2020/12/28 07:59:06;;;;;;;2.25;1.75;;;;;;;;;;5067781;28;20600;-76
2020/12/28 08:01:35;;;;;;;1.02;0.93;;;;;;;;;;5069009;28;20260;-75
2020/12/28 08:04:04;;;;;;;1.40;1.30;;;;;;;;;;5055352;28;20241;-76
2020/12/28 08:06:31;;;;;;;1.85;1.30;;;;;;;;;;5050829;28;20668;-76
2020/12/28 08:09:01;;;;;;;1.92;1.30;;;;;;;;;;5050757;28;20514;-76
2020/12/28 08:11:30;;;;;;;1.98;1.52;;;;;;;;;;5049680;28;20198;-76
2020/12/28 08:13:57;;;;;;;2.00;1.55;;;;;;;;;;5052506;28;20564;-76
2020/12/28 08:16:24;;;;;;;1.98;1.77;;;;;;;;;;5065006;28;20797;-75
2020/12/28 08:18:53;;;;;;;2.17;1.33;;;;;;;;;;5052819;28;20202;-76
2020/12/28 08:21:20;;;;;;;2.22;1.45;;;;;;;;;;5048838;28;20199;-76
2020/12/28 08:23:52;;;;;;;2.30;1.88;;;;;;;;;;5067870;28;20215;-76
2020/12/28 08:26:19;;;;;;;4.95;1.95;;;;;;;;;;5069360;28;20309;-76
2020/12/28 08:28:48;;;;;;;2.88;1.45;;;;;;;;;;5073148;28;20194;-76
2020/12/28 08:31:15;;;;;;;1.85;1.50;;;;;;;;;;5073207;28;20191;-75
2020/12/28 08:33:42;;;;;;;2.83;1.77;;;;;;;;;;5074218;28;20221;-75
2020/12/28 08:36:08;;;;;;;2.47;1.88;;;;;;;;;;5073099;28;20651;-76
2020/12/28 08:38:36;;;;;;;1.85;1.50;;;;;;;;;;5068643;28;20723;-74
2020/12/28 08:41:03;;;;;;;7.72;2.10;;;;;;;;;;5069732;28;20437;-75
2020/12/28 08:43:30;;;;;;;3.92;2.10;;;;;;;;;;5070739;28;20255;-75
2020/12/28 08:46:05;;;;;;;2.22;2.00;;;;;;;;;;5071879;28;20218;-75
2020/12/28 08:48:32;;;;;;;1.85;1.65;;;;;;;;;;5070412;28;20200;-75
2020/12/28 08:50:59;;;;;;;2.40;2.00;;;;;;;;;;5054042;28;20282;-75
2020/12/28 08:53:25;;;;;;;3.08;2.10;;;;;;;;;;5054342;28;20217;-76
2020/12/28 08:56:01;;;;;;;4.60;2.08;;;;;;;;;;5053892;28;20285;-75
2020/12/28 08:58:28;;;;;;;3.78;1.70;;;;;;;;;;5055856;28;20192;-75
2020/12/28 09:00:55;;;;;;;2.83;1.90;;;;;;;;;;5066540;28;20213;-75
2020/12/28 09:03:22;;;;;;;2.90;1.50;;;;;;;;;;5069806;28;20313;-76
2020/12/28 09:05:48;;;;;;;1.30;1.17;;;;;;;;;;5071725;28;20221;-77
2020/12/28 09:08:15;;;;;;;2.47;1.58;;;;;;;;;;5071401;28;20677;-76
2020/12/28 09:10:42;;;;;;;2.03;1.60;;;;;;;;;;5070834;28;20644;-77
2020/12/28 09:13:10;;;;;;;2.80;1.70;;;;;;;;;;5063007;28;20217;-76
2020/12/28 09:15:37;;;;;;;3.55;1.40;;;;;;;;;;5053350;28;20670;-75
2020/12/28 09:18:03;;;;;;;1.95;1.35;;;;;;;;;;5053225;28;20217;-75
2020/12/28 09:20:30;;;;;;;2.03;1.40;;;;;;;;;;5053571;28;20201;-77
2020/12/28 09:22:57;;;;;;;2.40;1.30;;;;;;;;;;5067374;28;20583;-77
2020/12/28 09:25:24;;;;;;;2.42;1.52;;;;;;;;;;5068851;28;20220;-77
2020/12/28 09:27:51;;;;;;;2.65;1.52;;;;;;;;;;5070193;28;20281;-77
2020/12/28 09:30:18;;;;;;;2.70;1.80;;;;;;;;;;5069658;28;20186;-75
2020/12/28 09:32:45;;;;;;;2.15;1.65;;;;;;;;;;5071291;28;20284;-76
2020/12/28 09:35:12;;;;;;;3.33;2.38;;;;;;;;;;5053900;28;20203;-76
2020/12/28 09:37:39;;;;;;;2.75;2.25;;;;;;;;;;5053087;28;20228;-76
2020/12/28 09:40:06;;;;;;;5.13;2.10;;;;;;;;;;5052885;28;20256;-76
2020/12/28 09:42:33;;;;;;;3.22;2.20;;;;;;;;;;5058687;28;20187;-80
2020/12/28 09:45:00;;;;;;;3.58;2.47;;;;;;;;;;5066732;28;20240;-76
2020/12/28 09:47:28;;;;;;;5.28;2.03;;;;;;;;;;5050520;28;20202;-78
2020/12/28 09:49:55;;;;;;;3.63;1.80;;;;;;;;;;5050493;28;20202;-77
2020/12/28 09:52:21;;;;;;;3.15;1.67;;;;;;;;;;5055740;28;20670;-82
2020/12/28 09:54:48;;;;;;;2.22;1.90;;;;;;;;;;5071055;28;20665;-76
2020/12/28 09:57:15;;;;;;;2.90;1.67;;;;;;;;;;5072426;28;20582;-76
2020/12/28 09:59:42;;;;;;;2.20;1.98;;;;;;;;;;5072473;28;20251;-75
2020/12/28 10:02:09;;;;;;;1.70;1.60;;;;;;;;;;5071290;28;20285;-78
2020/12/28 10:04:37;;;;;;;3.00;1.60;;;;;;;;;;5070101;28;20226;-77
2020/12/28 10:07:03;;;;;;;2.75;1.70;;;;;;;;;;5066913;28;20286;-76
2020/12/28 10:09:30;;;;;;;1.85;1.60;;;;;;;;;;5069473;28;20200;-78
2020/12/28 10:11:58;;;;;;;2.90;1.70;;;;;;;;;;5070030;28;20205;-77
2020/12/28 10:14:25;;;;;;;7.20;1.63;;;;;;;;;;5070318;28;20213;-76
2020/12/28 10:16:51;;;;;;;2.83;1.70;;;;;;;;;;5070338;28;20194;-76
2020/12/28 10:19:18;;;;;;;1.83;1.73;;;;;;;;;;5072172;28;20194;-76
2020/12/28 10:21:46;;;;;;;2.38;1.63;;;;;;;;;;5071868;28;20191;-77
2020/12/28 10:24:13;;;;;;;4.15;1.75;;;;;;;;;;5071625;28;20567;-77
2020/12/28 10:26:40;;;;;;;2.38;1.30;;;;;;;;;;5069305;28;20186;-77
2020/12/28 10:29:07;;;;;;;1.85;1.33;;;;;;;;;;5065808;28;20202;-76
2020/12/28 10:31:34;;;;;;;1.77;1.40;;;;;;;;;;5068691;28;20209;-76
2020/12/28 10:34:01;;;;;;;1.75;1.55;;;;;;;;;;5069073;28;20214;-75
2020/12/28 10:36:28;;;;;;;2.40;1.70;;;;;;;;;;5069599;28;20201;-76
2020/12/28 10:38:57;;;;;;;1.38;1.20;;;;;;;;;;5069579;28;20210;-76
2020/12/28 10:41:25;;;;;;;2.75;1.80;;;;;;;;;;5071599;28;20651;-75
2020/12/28 10:43:52;;;;;;;2.13;1.55;;;;;;;;;;5070568;28;20215;-75
2020/12/28 10:46:18;;;;;;;2.35;1.38;;;;;;;;;;5071516;28;20224;-77
2020/12/28 10:48:45;;;;;;;4.22;1.40;;;;;;;;;;5069163;28;20913;-75
2020/12/28 10:51:12;;;;;;;4.47;1.45;;;;;;;;;;5065603;28;20219;-75
2020/12/28 10:53:39;;;;;;;2.47;1.40;;;;;;;;;;5068295;28;20232;-75
2020/12/28 10:56:07;;;;;;;2.20;1.42;;;;;;;;;;5067754;28;20556;-75
2020/12/28 10:58:34;;;;;;;2.50;1.50;;;;;;;;;;5069299;28;20197;-75
2020/12/28 11:01:01;;;;;;;2.75;1.55;;;;;;;;;;5069067;28;20200;-75
2020/12/28 11:03:28;;;;;;;2.03;1.35;;;;;;;;;;5065471;28;20205;-75
2020/12/28 11:05:55;;;;;;;2.35;1.63;;;;;;;;;;5067456;28;20313;-75
2020/12/28 11:08:22;;;;;;;2.25;1.50;;;;;;;;;;5069146;28;20247;-75
2020/12/28 11:10:49;;;;;;;2.35;1.75;;;;;;;;;;5069250;28;20208;-76
2020/12/28 11:13:16;;;;;;;5.57;3.25;;;;;;;;;;5069552;28;20239;-76
2020/12/28 11:15:44;;;;;;;1.98;1.27;;;;;;;;;;5051052;28;20197;-75
2020/12/28 11:18:11;;;;;;;1.83;1.35;;;;;;;;;;5051180;28;20623;-76
2020/12/28 11:20:38;;;;;;;2.42;1.40;;;;;;;;;;5051038;28;20201;-75
2020/12/28 11:23:05;;;;;;;2.58;1.58;;;;;;;;;;5051437;28;20221;-76
2020/12/28 11:25:31;;;;;;;2.20;1.75;;;;;;;;;;5064896;28;20252;-76
2020/12/28 11:27:58;;;;;;;3.75;1.77;;;;;;;;;;5066393;28;20197;-76
2020/12/28 11:30:26;;;;;;;2.05;1.40;;;;;;;;;;5069323;28;20190;-75
2020/12/28 11:32:53;;;;;;;1.70;1.40;;;;;;;;;;5068943;28;20191;-76
2020/12/28 11:35:21;;;;;;;1.52;1.30;;;;;;;;;;5069552;28;20197;-76
2020/12/28 11:37:47;;;;;;;3.20;1.30;;;;;;;;;;5070372;28;20288;-75
2020/12/28 11:40:15;;;;;;;3.45;1.52;;;;;;;;;;5071092;28;20201;-76
2020/12/28 11:42:42;;;;;;;2.00;1.48;;;;;;;;;;5070901;28;20670;-76
2020/12/28 11:45:09;;;;;;;2.35;1.33;;;;;;;;;;5070889;28;20557;-75
2020/12/28 11:47:37;;;;;;;2.08;1.88;;;;;;;;;;5066125;28;20186;-76
2020/12/28 11:50:04;;;;;;;2.03;1.50;;;;;;;;;;5066259;28;20215;-76
2020/12/28 11:52:31;;;;;;;2.30;1.40;;;;;;;;;;5068934;28;20282;-76
2020/12/28 11:54:57;;;;;;;4.40;1.50;;;;;;;;;;5068492;28;20579;-78
2020/12/28 11:57:24;;;;;;;2.70;1.60;;;;;;;;;;5069711;28;20204;-76
2020/12/28 11:59:51;;;;;;;2.80;1.95;;;;;;;;;;5072360;28;20202;-76
2020/12/28 12:02:20;;;;;;;1.90;1.40;;;;;;;;;;5074588;28;20201;-76
2020/12/28 12:04:49;;;;;;;1.92;1.52;;;;;;;;;;5074746;28;20229;-82
2020/12/28 12:07:16;;;;;;;3.03;1.73;;;;;;;;;;5074815;28;20326;-83
2020/12/28 12:09:42;;;;;;;2.80;1.80;;;;;;;;;;5072172;28;20932;-80
2020/12/28 12:12:09;;;;;;;3.78;2.10;;;;;;;;;;5068172;28;20192;-83
2020/12/28 12:14:36;;;;;;;4.43;2.20;;;;;;;;;;5072115;28;20267;-84
2020/12/28 12:17:03;;;;;;;2.35;1.90;;;;;;;;;;5072332;28;20201;-79
2020/12/28 12:19:30;;;;;;;1.98;1.77;;;;;;;;;;5072831;28;20193;-81
2020/12/28 12:21:57;;;;;;;2.40;1.73;;;;;;;;;;5067446;28;20545;-80
2020/12/28 12:24:24;;;;;;;2.60;2.33;;;;;;;;;;5065148;28;20710;-81
2020/12/28 12:26:51;;;;;;;2.78;1.95;;;;;;;;;;5054751;28;20281;-79
2020/12/28 12:29:18;;;;;;;2.35;2.15;;;;;;;;;;5068542;28;20186;-81
2020/12/28 12:31:45;;;;;;;2.03;1.85;;;;;;;;;;5072955;28;20259;-83
2020/12/28 12:34:13;;;;;;;5.18;2.00;;;;;;;;;;5068689;28;20581;-83
2020/12/28 12:36:40;;;;;;;2.25;1.85;;;;;;;;;;5071321;28;20194;-80
2020/12/28 12:39:07;;;;;;;2.75;1.77;;;;;;;;;;5068642;28;20201;-76
2020/12/28 12:41:34;;;;;;;3.28;1.70;;;;;;;;;;5051101;28;20244;-76
2020/12/28 12:44:01;;;;;;;1.98;1.70;;;;;;;;;;5048026;28;20309;-76
2020/12/28 12:46:27;;;;;;;2.17;1.70;;;;;;;;;;5056978;28;20267;-75
2020/12/28 12:48:54;;;;;;;1.92;1.60;;;;;;;;;;5064772;28;20190;-76
2020/12/28 12:51:22;;;;;;;2.00;1.80;;;;;;;;;;5047937;28;20264;-75
2020/12/28 12:53:49;;;;;;;1.70;1.60;;;;;;;;;;5047967;28;20222;-77
2020/12/28 12:56:20;;;;;;;2.50;2.00;;;;;;;;;;5048517;28;20673;-75
2020/12/28 12:58:47;;;;;;;3.53;1.45;;;;;;;;;;5056808;28;20628;-77
2020/12/28 13:01:14;;;;;;;1.85;1.40;;;;;;;;;;5054525;28;20371;-76
2020/12/28 13:03:41;;;;;;;3.30;2.15;;;;;;;;;;5069469;28;20240;-77
2020/12/28 13:06:09;;;;;;;2.75;1.95;;;;;;;;;;5063648;28;20264;-76
2020/12/28 13:08:36;;;;;;;2.60;1.60;;;;;;;;;;5067056;28;20323;-76
2020/12/28 13:11:02;;;;;;;3.88;1.60;;;;;;;;;;5063370;28;20634;-76
2020/12/28 13:13:30;;;;;;;2.40;2.00;;;;;;;;;;5067044;28;20565;-76
2020/12/28 13:15:57;;;;;;;4.03;1.88;;;;;;;;;;5067425;28;20626;-76
2020/12/28 13:18:24;;;;;;;1.95;1.75;;;;;;;;;;5067717;28;20209;-76
2020/12/28 13:20:51;;;;;;;2.70;1.55;;;;;;;;;;5068146;28;20323;-76
2020/12/28 13:23:17;;;;;;;2.38;1.58;;;;;;;;;;5069427;28;20337;-77
2020/12/28 13:25:44;;;;;;;3.13;1.90;;;;;;;;;;5051711;28;20233;-76
2020/12/28 13:28:12;;;;;;;3.22;1.60;;;;;;;;;;5060093;28;20208;-77
2020/12/28 13:30:39;;;;;;;3.20;1.98;;;;;;;;;;5063212;28;20198;-76
2020/12/28 13:33:10;;;;;;;3.75;1.70;;;;;;;;;;5066314;28;20271;-76
2020/12/28 13:35:48;;;;;;;;;;;;;;;;;;;;;
2020/12/28 13:38:16;;;;;;;3.33;1.83;;;;;;;;;;5042921;28;20201;-76
2020/12/28 13:40:43;;;;;;;2.75;2.33;;;;;;;;;;5047282;28;20202;-76
2020/12/28 13:43:10;;;;;;;2.97;2.00;;;;;;;;;;5049093;28;20408;-76
2020/12/28 13:45:37;;;;;;;2.30;1.83;;;;;;;;;;5049442;28;20222;-76
2020/12/28 13:48:05;;;;;;;2.40;1.67;;;;;;;;;;5048470;28;20194;-76
2020/12/28 13:50:31;;;;;;;2.55;1.63;;;;;;;;;;5050863;28;20182;-75
2020/12/28 13:52:58;;;;;;;1.95;1.70;;;;;;;;;;5062690;28;20669;-79
2020/12/28 13:55:25;;;;;;;1.92;1.55;;;;;;;;;;5065406;28;20214;-76
2020/12/28 13:57:52;;;;;;;2.35;1.88;;;;;;;;;;5067766;28;20203;-76
2020/12/28 14:00:19;;;;;;;2.50;1.85;;;;;;;;;;5059194;28;20183;-76
2020/12/28 14:02:46;;;;;;;6.15;1.85;;;;;;;;;;5070169;28;20548;-76
2020/12/28 14:05:13;;;;;;;2.05;1.73;;;;;;;;;;5056986;28;20762;-76
2020/12/28 14:07:40;;;;;;;4.03;2.22;;;;;;;;;;5052743;28;20276;-75
2020/12/28 14:10:07;;;;;;;1.70;1.40;;;;;;;;;;5052639;28;20399;-77
2020/12/28 14:12:34;;;;;;;3.50;1.88;;;;;;;;;;5052650;28;20554;-77
2020/12/28 14:15:00;;;;;;;2.35;1.60;;;;;;;;;;5066460;28;20198;-75
2020/12/28 14:17:27;;;;;;;2.40;1.52;;;;;;;;;;5067831;28;20244;-77
2020/12/28 14:19:54;;;;;;;2.65;1.65;;;;;;;;;;5061575;28;20214;-76
2020/12/28 14:22:22;;;;;;;2.17;1.70;;;;;;;;;;5050385;28;20239;-77
2020/12/28 14:24:48;;;;;;;2.67;1.83;;;;;;;;;;5050487;28;20218;-76
2020/12/28 14:27:15;;;;;;;1.90;1.70;;;;;;;;;;5052220;28;20207;-75
2020/12/28 14:29:42;;;;;;;1.90;1.60;;;;;;;;;;5063786;28;20263;-76
2020/12/28 14:32:09;;;;;;;7.43;1.90;;;;;;;;;;5071967;28;20554;-76
2020/12/28 14:34:35;;;;;;;3.42;2.17;;;;;;;;;;5052940;28;20261;-75
2020/12/28 14:37:02;;;;;;;2.10;1.90;;;;;;;;;;5063591;28;20280;-76
2020/12/28 14:39:30;;;;;;;1.70;1.40;;;;;;;;;;5067077;28;20188;-77
2020/12/28 14:41:58;;;;;;;5.63;1.70;;;;;;;;;;5069676;28;20271;-77
2020/12/28 14:44:25;;;;;;;2.47;1.90;;;;;;;;;;5069564;28;20226;-76